Time;durP1;ratioP1;P1;durP2;ratioP2;P2;SDS_P1;SDS_P2;PMS_P1;PMS_P2;Temp;Humidity;BMP_temperature;BMP_pressure;BME280_temperature;BME280_humidity;BME280_pressure;Samples;Min_cycle;Max_cycle;Signal;HPM_P1;HPM_P2
2023/08/31 00:02:09;;;;;;;0.80;0.80;;;;;;;24.16;56.57;98632.88;5111895;28;20202;-71
2023/08/31 00:04:36;;;;;;;1.00;1.00;;;;;;;24.03;56.81;98627.97;5112245;28;20214;-71
2023/08/31 00:07:04;;;;;;;2.37;1.00;;;;;;;24.03;56.78;98623.56;5112328;28;20227;-71
2023/08/31 00:09:31;;;;;;;1.10;1.10;;;;;;;24.03;57.09;98633.22;5110626;28;20191;-71
2023/08/31 00:11:58;;;;;;;1.80;1.10;;;;;;;24.02;57.14;98634.19;5112149;28;20252;-71
2023/08/31 00:14:26;;;;;;;1.53;1.43;;;;;;;23.97;57.38;98634.63;5111886;28;20202;-71
2023/08/31 00:16:53;;;;;;;1.00;1.00;;;;;;;23.96;57.03;98627.75;5112133;28;20637;-71
2023/08/31 00:19:20;;;;;;;0.90;0.90;;;;;;;23.91;57.18;98635.22;5111955;28;20198;-72
2023/08/31 00:21:48;;;;;;;2.07;1.00;;;;;;;23.86;57.53;98632.22;5112162;28;20202;-71
2023/08/31 00:24:16;;;;;;;1.27;0.93;;;;;;;23.78;58.02;98634.75;5111008;28;20233;-71
2023/08/31 00:26:43;;;;;;;2.73;1.00;;;;;;;23.74;57.84;98636.03;5111676;28;20199;-71
2023/08/31 00:29:10;;;;;;;2.13;1.40;;;;;;;23.71;58.35;98638.94;5111500;28;20191;-72
2023/08/31 00:31:37;;;;;;;1.40;1.23;;;;;;;23.67;58.58;98637.59;5111467;28;20282;-71
2023/08/31 00:34:04;;;;;;;1.27;1.27;;;;;;;23.68;58.57;98641.03;5111969;28;20202;-71
2023/08/31 00:36:31;;;;;;;2.30;1.57;;;;;;;23.65;58.83;98644.75;5111298;28;20658;-71
2023/08/31 00:38:58;;;;;;;3.50;1.40;;;;;;;23.62;58.67;98650.28;5111318;28;20570;-71
2023/08/31 00:41:26;;;;;;;1.83;1.73;;;;;;;23.63;58.87;98651.09;5110491;28;20973;-71
2023/08/31 00:43:53;;;;;;;1.03;1.03;;;;;;;23.61;58.91;98653.06;5111375;28;20286;-71
2023/08/31 00:46:19;;;;;;;0.77;0.77;;;;;;;23.59;59.58;98655.81;5111399;28;20585;-71
2023/08/31 00:48:46;;;;;;;0.90;0.90;;;;;;;23.56;59.14;98653.47;5116089;27;20286;-71
2023/08/31 00:51:13;;;;;;;5.20;1.47;;;;;;;23.49;59.23;98660.25;5115503;27;20212;-72
2023/08/31 00:53:41;;;;;;;2.70;1.00;;;;;;;23.48;59.43;98658.63;5111395;28;20221;-72
2023/08/31 00:56:09;;;;;;;3.07;1.33;;;;;;;23.48;59.30;98658.63;5111327;27;20210;-71
2023/08/31 00:58:37;;;;;;;1.00;1.00;;;;;;;23.48;59.15;98650.78;5107960;28;20198;-71
2023/08/31 01:01:12;;;;;;;0.60;0.60;;;;;;;23.39;59.49;98647.19;5108841;28;20251;-71
2023/08/31 01:03:44;;;;;;;5.77;0.80;;;;;;;23.46;59.52;98660.56;5108119;28;20198;-71
2023/08/31 01:06:19;;;;;;;0.97;0.93;;;;;;;23.43;59.27;98655.63;5111033;28;20657;-72
2023/08/31 01:08:54;;;;;;;2.47;1.13;;;;;;;23.41;59.55;98655.78;5111483;28;20218;-71
2023/08/31 01:11:31;;;;;;;0.70;0.70;;;;;;;23.43;59.13;98661.66;5110733;28;20198;-71
2023/08/31 01:14:04;;;;;;;0.93;0.93;;;;;;;23.45;59.36;98662.38;5111061;28;20186;-71
2023/08/31 01:16:34;;;;;;;1.50;1.40;;;;;;;23.44;58.97;98667.72;5110610;28;20795;-71
2023/08/31 01:19:05;;;;;;;0.83;0.83;;;;;;;23.45;59.16;98677.25;5110609;28;20206;-71
2023/08/31 01:21:38;;;;;;;1.27;1.17;;;;;;;23.49;59.00;98681.19;5110058;28;20194;-71
2023/08/31 01:24:07;;;;;;;0.87;0.87;;;;;;;23.44;58.72;98688.66;5109347;28;20195;-71
2023/08/31 01:26:34;;;;;;;0.80;0.80;;;;;;;23.49;59.10;98695.09;5110999;28;20599;-71
2023/08/31 01:29:01;;;;;;;2.47;1.00;;;;;;;23.50;59.29;98695.94;5110741;28;20259;-71
2023/08/31 01:31:29;;;;;;;1.07;1.07;;;;;;;23.46;58.82;98691.94;5110401;28;20191;-75
2023/08/31 01:33:55;;;;;;;1.00;1.00;;;;;;;23.46;58.76;98697.19;5112079;27;20249;-72
2023/08/31 01:36:27;;;;;;;1.00;1.00;;;;;;;23.53;59.03;98695.63;5110768;28;20222;-73
2023/08/31 01:39:02;;;;;;;0.80;0.80;;;;;;;23.61;59.40;98702.78;5111165;28;20191;-72
2023/08/31 01:41:35;;;;;;;0.80;0.80;;;;;;;23.70;59.10;98700.09;5110486;28;21664;-72
2023/08/31 01:44:02;;;;;;;0.77;0.73;;;;;;;23.72;58.64;98708.63;5111398;27;20194;-73
2023/08/31 01:46:30;;;;;;;1.67;1.10;;;;;;;23.78;58.62;98708.03;5109986;28;20286;-72
2023/08/31 01:48:57;;;;;;;0.70;0.70;;;;;;;23.85;58.74;98722.19;5110608;28;20240;-73
2023/08/31 01:51:24;;;;;;;0.80;0.80;;;;;;;23.87;58.22;98706.34;5110000;28;20191;-72
2023/08/31 01:53:51;;;;;;;0.80;0.80;;;;;;;23.88;58.84;98703.56;5110342;28;20243;-72
2023/08/31 01:56:18;;;;;;;1.03;1.03;;;;;;;23.89;58.03;98699.16;5110121;28;20211;-74
2023/08/31 01:58:46;;;;;;;1.07;0.90;;;;;;;23.84;58.12;98712.72;5115217;28;20194;-72
2023/08/31 02:01:13;;;;;;;0.70;0.70;;;;;;;23.72;57.68;98707.78;5109462;28;20675;-71
2023/08/31 02:03:39;;;;;;;1.00;1.00;;;;;;;23.64;57.25;98720.81;5110504;28;20232;-71
2023/08/31 02:06:06;;;;;;;0.97;0.97;;;;;;;23.53;57.44;98713.94;5111680;28;20210;-72
2023/08/31 02:08:33;;;;;;;0.73;0.73;;;;;;;23.39;58.16;98696.09;5110490;28;20219;-71
2023/08/31 02:11:00;;;;;;;2.73;1.30;;;;;;;23.50;58.25;98714.25;5110699;28;20214;-72
2023/08/31 02:13:27;;;;;;;1.60;0.80;;;;;;;23.49;57.76;98717.81;5109670;28;20197;-72
2023/08/31 02:15:55;;;;;;;1.10;1.10;;;;;;;23.45;57.95;98722.53;5110542;28;20253;-71
2023/08/31 02:18:22;;;;;;;0.90;0.90;;;;;;;23.45;58.00;98722.53;5109897;28;20202;-72
2023/08/31 02:20:48;;;;;;;1.57;0.90;;;;;;;23.46;57.97;98720.72;5113632;28;20226;-72
2023/08/31 02:23:15;;;;;;;1.03;1.03;;;;;;;23.45;57.43;98722.53;5109861;28;20198;-72
2023/08/31 02:25:42;;;;;;;1.77;1.03;;;;;;;23.44;58.04;98722.66;5110310;28;20267;-71
2023/08/31 02:28:09;;;;;;;1.17;0.83;;;;;;;23.43;57.90;98716.59;5110241;28;20262;-72
2023/08/31 02:30:36;;;;;;;1.60;0.93;;;;;;;23.41;58.33;98722.97;5109888;28;20620;-71
2023/08/31 02:33:04;;;;;;;2.10;1.40;;;;;;;23.43;58.51;98718.41;5113579;28;20202;-72
2023/08/31 02:35:31;;;;;;;0.87;0.87;;;;;;;23.49;58.12;98733.50;5113046;28;20260;-71
2023/08/31 02:37:58;;;;;;;0.97;0.97;;;;;;;23.41;57.82;98717.72;5114496;27;20642;-71
2023/08/31 02:40:25;;;;;;;1.70;0.80;;;;;;;23.47;58.36;98736.28;5120005;27;20306;-72
2023/08/31 02:42:52;;;;;;;0.70;0.70;;;;;;;23.48;58.03;98734.50;5118947;27;20263;-71
2023/08/31 02:45:19;;;;;;;0.87;0.87;;;;;;;23.43;57.88;98734.09;5115280;27;20229;-71
2023/08/31 02:47:46;;;;;;;0.60;0.60;;;;;;;23.42;58.49;98737.69;5113864;28;20210;-71
2023/08/31 02:50:14;;;;;;;0.60;0.60;;;;;;;23.42;58.18;98737.69;5113565;28;20194;-72
2023/08/31 02:52:41;;;;;;;1.07;1.00;;;;;;;23.39;58.20;98743.97;5113438;28;20195;-73
2023/08/31 02:55:09;;;;;;;0.90;0.90;;;;;;;23.37;58.47;98750.31;5113720;28;20263;-72
2023/08/31 02:57:37;;;;;;;1.20;1.20;;;;;;;23.34;58.21;98755.84;5111062;28;20250;-72
2023/08/31 03:00:08;;;;;;;0.67;0.60;;;;;;;23.30;58.50;98759.72;5113714;27;20191;-72
2023/08/31 03:02:36;;;;;;;0.70;0.70;;;;;;;23.27;58.61;98762.59;5110835;28;20191;-72
2023/08/31 03:05:03;;;;;;;0.80;0.80;;;;;;;23.23;58.45;98762.06;5113865;28;20221;-71
2023/08/31 03:07:32;;;;;;;1.17;1.07;;;;;;;23.19;58.37;98759.88;5113475;28;20223;-74
2023/08/31 03:09:59;;;;;;;2.53;0.77;;;;;;;23.18;58.40;98764.28;5113513;28;20539;-73
2023/08/31 03:12:26;;;;;;;2.47;0.80;;;;;;;23.18;58.49;98771.31;5113496;28;20273;-72
2023/08/31 03:14:52;;;;;;;1.03;1.03;;;;;;;23.16;58.57;98775.84;5113511;27;20256;-72
2023/08/31 03:17:19;;;;;;;0.97;0.97;;;;;;;23.16;58.50;98768.00;5117063;27;20218;-72
2023/08/31 03:19:46;;;;;;;0.90;0.90;;;;;;;23.19;58.02;98767.72;5113195;28;20694;-73
2023/08/31 03:22:13;;;;;;;1.13;1.10;;;;;;;23.20;58.69;98764.16;5112731;28;20240;-73
2023/08/31 03:24:41;;;;;;;2.93;1.13;;;;;;;23.14;58.68;98772.53;5113310;28;20191;-72
2023/08/31 03:27:08;;;;;;;0.87;0.87;;;;;;;23.11;58.50;98762.38;5115685;27;20550;-73
2023/08/31 03:29:34;;;;;;;0.80;0.80;;;;;;;23.11;58.54;98759.75;5112578;28;20562;-72
2023/08/31 03:32:02;;;;;;;0.73;0.73;;;;;;;23.06;58.27;98757.56;5112559;28;20243;-73
2023/08/31 03:34:30;;;;;;;1.50;1.40;;;;;;;23.02;58.03;98757.03;5112420;28;20224;-73
2023/08/31 03:36:57;;;;;;;1.73;1.63;;;;;;;23.01;58.40;98765.81;5112757;28;20264;-73
2023/08/31 03:39:24;;;;;;;1.10;1.10;;;;;;;23.02;58.11;98764.03;5114936;27;20194;-73
2023/08/31 03:41:52;;;;;;;1.43;1.40;;;;;;;23.05;58.18;98762.94;5112637;28;20202;-75
2023/08/31 03:44:19;;;;;;;1.30;1.20;;;;;;;23.05;58.66;98763.75;5112985;27;20211;-73
2023/08/31 03:46:46;;;;;;;1.47;1.37;;;;;;;23.04;58.16;98763.91;5112982;28;20726;-72
2023/08/31 03:49:12;;;;;;;1.20;1.20;;;;;;;23.05;58.63;98770.78;5112554;27;20256;-73
2023/08/31 03:51:39;;;;;;;1.17;1.17;;;;;;;23.02;58.27;98777.94;5112300;27;20612;-72
2023/08/31 03:54:06;;;;;;;1.33;1.27;;;;;;;23.01;58.80;98781.50;5117427;27;20997;-73
2023/08/31 03:56:33;;;;;;;1.07;1.07;;;;;;;23.01;58.74;98786.75;5112125;28;20264;-73
2023/08/31 03:59:04;;;;;;;0.70;0.70;;;;;;;23.00;58.94;98790.31;5112332;27;20195;-73
2023/08/31 04:01:31;;;;;;;1.13;1.13;;;;;;;22.97;59.04;98785.38;5111568;28;20228;-72
2023/08/31 04:03:57;;;;;;;0.93;0.93;;;;;;;23.02;59.35;98798.84;5112441;28;20191;-73
2023/08/31 04:06:24;;;;;;;0.90;0.90;;;;;;;23.07;59.32;98802.84;5116702;27;20702;-73
2023/08/31 04:08:51;;;;;;;1.10;1.00;;;;;;;23.10;59.04;98802.56;5112473;28;20582;-73
2023/08/31 04:11:18;;;;;;;5.57;1.00;;;;;;;23.11;59.22;98809.44;5111660;28;20198;-72
2023/08/31 04:13:44;;;;;;;5.83;1.33;;;;;;;23.08;60.11;98802.69;5116416;27;20256;-72
2023/08/31 04:16:13;;;;;;;1.20;1.20;;;;;;;23.16;59.29;98820.31;5121582;27;20198;-73
2023/08/31 04:18:39;;;;;;;1.40;1.40;;;;;;;23.19;59.88;98833.94;5112282;28;20271;-73
2023/08/31 04:21:07;;;;;;;1.10;1.10;;;;;;;23.20;60.13;98826.91;5111790;27;20194;-73
2023/08/31 04:23:34;;;;;;;1.63;1.30;;;;;;;23.26;59.82;98837.66;5112312;28;21460;-73
2023/08/31 04:26:01;;;;;;;3.07;1.37;;;;;;;23.28;59.86;98840.13;5111875;28;20199;-73
2023/08/31 04:28:27;;;;;;;1.30;1.20;;;;;;;23.31;59.78;98839.84;5111491;28;20260;-73
2023/08/31 04:30:54;;;;;;;1.33;1.17;;;;;;;23.37;59.98;98855.78;5111438;28;20195;-72
2023/08/31 04:33:22;;;;;;;1.10;1.00;;;;;;;23.40;60.41;98857.31;5111316;28;20198;-73
2023/08/31 04:35:49;;;;;;;1.23;1.23;;;;;;;23.46;59.92;98859.38;5111457;27;20697;-73
2023/08/31 04:38:16;;;;;;;1.17;1.07;;;;;;;23.55;60.03;98858.56;5111152;28;20222;-75
2023/08/31 04:40:43;;;;;;;1.17;1.10;;;;;;;23.68;60.33;98859.09;5111879;28;20190;-73
2023/08/31 04:43:10;;;;;;;1.23;0.87;;;;;;;23.84;60.19;98864.56;5115031;27;20662;-76
2023/08/31 04:45:37;;;;;;;1.10;1.00;;;;;;;23.99;58.69;98855.25;5111378;28;20642;-77
2023/08/31 04:48:04;;;;;;;1.57;1.53;;;;;;;24.21;59.74;98866.34;5110682;28;20195;-73
2023/08/31 04:50:32;;;;;;;0.93;0.93;;;;;;;24.33;58.34;98859.97;5111019;28;20271;-73
2023/08/31 04:52:59;;;;;;;1.00;0.80;;;;;;;24.51;57.41;98871.28;5111117;28;20555;-74
2023/08/31 04:55:28;;;;;;;1.00;1.00;;;;;;;24.68;57.36;98862.66;5109652;28;20202;-74
2023/08/31 04:57:57;;;;;;;1.10;1.10;;;;;;;24.87;57.42;98875.66;5114175;27;20210;-73
2023/08/31 05:00:24;;;;;;;5.20;1.07;;;;;;;25.02;56.15;98876.78;5116110;27;20194;-73
2023/08/31 05:02:51;;;;;;;1.77;1.00;;;;;;;25.21;55.03;98872.31;5110241;27;20277;-73
2023/08/31 05:05:19;;;;;;;1.03;1.03;;;;;;;25.38;55.85;98874.13;5111392;28;20610;-72
2023/08/31 05:07:47;;;;;;;1.33;1.23;;;;;;;25.54;55.59;98879.50;5110982;28;20324;-72
2023/08/31 05:10:14;;;;;;;1.07;0.97;;;;;;;25.68;55.18;98878.13;5111158;27;20244;-73
2023/08/31 05:12:41;;;;;;;1.10;1.10;;;;;;;25.84;54.13;98881.69;5117728;27;20201;-72
2023/08/31 05:15:09;;;;;;;0.70;0.70;;;;;;;26.03;52.85;98881.47;5111156;27;20258;-73
2023/08/31 05:17:36;;;;;;;0.70;0.70;;;;;;;26.14;53.91;98871.66;5110463;28;20264;-72
2023/08/31 05:20:04;;;;;;;0.93;0.93;;;;;;;26.29;54.43;98880.63;5110811;28;20187;-72
2023/08/31 05:22:31;;;;;;;0.70;0.70;;;;;;;26.46;51.99;98882.34;5115007;27;20275;-72
2023/08/31 05:25:00;;;;;;;1.80;1.10;;;;;;;26.56;51.10;98888.25;5109874;28;20648;-74
2023/08/31 05:27:27;;;;;;;0.80;0.80;;;;;;;26.66;51.46;98888.97;5114158;27;20201;-73
2023/08/31 05:29:54;;;;;;;0.60;0.60;;;;;;;26.69;51.75;98891.25;5115007;27;20194;-73
2023/08/31 05:32:20;;;;;;;2.10;1.07;;;;;;;26.85;51.63;98888.69;5110601;28;20673;-74
2023/08/31 05:34:47;;;;;;;0.80;0.80;;;;;;;26.91;49.65;98888.09;5110865;28;20248;-72
2023/08/31 05:37:14;;;;;;;1.57;1.13;;;;;;;26.76;50.42;98887.00;5110157;27;20712;-73
2023/08/31 05:39:41;;;;;;;2.83;0.90;;;;;;;26.51;51.46;98885.31;5109294;28;20284;-73
2023/08/31 05:42:09;;;;;;;0.73;0.73;;;;;;;26.53;50.99;98883.34;5109225;28;20268;-72
2023/08/31 05:44:35;;;;;;;0.90;0.90;;;;;;;26.54;50.91;98884.97;5108632;28;21016;-72
2023/08/31 05:47:03;;;;;;;0.63;0.63;;;;;;;26.42;51.13;98881.84;5107071;28;20199;-72
2023/08/31 05:49:30;;;;;;;0.93;0.93;;;;;;;26.34;51.92;98888.84;5108646;27;20289;-71
2023/08/31 05:51:56;;;;;;;1.07;0.97;;;;;;;26.34;52.21;98888.84;5108451;28;20190;-72
2023/08/31 05:54:23;;;;;;;1.10;1.10;;;;;;;26.37;51.64;98888.53;5107008;28;20198;-72
2023/08/31 05:56:50;;;;;;;2.33;0.90;;;;;;;26.30;52.89;98893.59;5106533;28;20202;-72
2023/08/31 05:59:18;;;;;;;1.00;1.00;;;;;;;26.18;52.23;98878.28;5106997;28;20198;-72
2023/08/31 06:01:45;;;;;;;0.60;0.60;;;;;;;26.23;53.00;98891.78;5113558;28;20615;-72
2023/08/31 06:04:11;;;;;;;0.90;0.90;;;;;;;26.20;52.45;98894.72;5121838;28;20794;-71
2023/08/31 06:06:38;;;;;;;0.87;0.87;;;;;;;26.33;51.46;98900.38;5111672;28;20198;-72
2023/08/31 06:09:06;;;;;;;0.70;0.70;;;;;;;26.45;51.52;98896.47;5114974;28;20218;-71
2023/08/31 06:11:33;;;;;;;0.83;0.83;;;;;;;26.71;51.71;98905.09;5113753;28;20697;-72
2023/08/31 06:13:59;;;;;;;0.77;0.77;;;;;;;26.87;51.65;98892.00;5114881;28;20195;-71
2023/08/31 06:16:27;;;;;;;0.93;0.93;;;;;;;27.05;51.67;98884.78;5116016;27;20218;-72
2023/08/31 06:18:54;;;;;;;0.70;0.70;;;;;;;27.23;52.30;98899.63;5114481;28;20291;-71
2023/08/31 06:21:21;;;;;;;0.93;0.80;;;;;;;27.48;52.52;98901.28;5112087;27;20195;-72
2023/08/31 06:23:48;;;;;;;2.00;0.70;;;;;;;27.59;50.54;98898.34;5115055;27;20213;-71
2023/08/31 06:26:15;;;;;;;0.90;0.90;;;;;;;27.72;49.29;98909.19;5114258;27;20723;-71
2023/08/31 06:28:41;;;;;;;1.70;0.70;;;;;;;27.78;48.85;98907.69;5111146;28;20195;-72
2023/08/31 06:31:08;;;;;;;2.90;1.03;;;;;;;27.82;50.90;98904.53;5115114;27;20198;-72
2023/08/31 06:33:37;;;;;;;0.80;0.80;;;;;;;28.05;48.05;98902.88;5115370;27;20195;-71
2023/08/31 06:36:04;;;;;;;3.33;0.90;;;;;;;28.36;48.57;98915.31;5117614;27;20199;-72
2023/08/31 06:38:31;;;;;;;0.70;0.70;;;;;;;28.46;48.05;98918.56;5112361;27;20605;-71
2023/08/31 06:40:59;;;;;;;1.03;1.03;;;;;;;28.42;47.98;98911.97;5112085;28;20976;-72
2023/08/31 06:43:27;;;;;;;0.67;0.67;;;;;;;28.52;47.70;98920.50;5111359;28;20207;-72
2023/08/31 06:45:54;;;;;;;0.97;0.90;;;;;;;28.80;47.86;98920.88;5112293;27;20230;-72
2023/08/31 06:48:21;;;;;;;0.80;0.60;;;;;;;28.75;46.41;98918.78;5115693;27;20209;-72
2023/08/31 06:50:50;;;;;;;1.03;0.80;;;;;;;28.93;45.79;98914.06;5114317;27;20202;-72
2023/08/31 06:53:18;;;;;;;0.80;0.80;;;;;;;29.05;47.21;98912.66;5116479;27;20199;-72
2023/08/31 06:55:45;;;;;;;1.50;0.50;;;;;;;29.22;46.42;98916.00;5111828;27;20191;-72
2023/08/31 06:58:12;;;;;;;0.75;0.75;;;;;;;29.31;44.96;98924.69;5111174;27;20210;-72
2023/08/31 07:00:39;;;;;;;1.10;0.70;;;;;;;29.33;44.96;98922.72;5111006;27;20218;-73
2023/08/31 07:03:06;;;;;;;0.52;0.50;;;;;;;29.59;46.33;98924.00;5110888;27;20206;-73
2023/08/31 07:05:36;;;;;;;0.68;0.68;;;;;;;29.89;43.87;98927.50;5112384;27;20199;-72
2023/08/31 07:08:05;;;;;;;1.40;0.73;;;;;;;29.92;45.73;98923.72;5112867;27;20257;-72
2023/08/31 07:10:31;;;;;;;1.25;0.60;;;;;;;29.87;42.63;98932.19;5112905;27;20578;-72
2023/08/31 07:12:58;;;;;;;0.40;0.40;;;;;;;29.95;43.58;98928.63;5115862;27;21144;-71
2023/08/31 07:15:35;;;;;;;0.60;0.60;;;;;;;30.10;43.45;98927.66;5116617;27;20218;-73
2023/08/31 07:18:06;;;;;;;0.60;0.60;;;;;;;29.99;42.53;98924.59;5118907;27;20764;-72
2023/08/31 07:20:33;;;;;;;0.52;0.50;;;;;;;30.30;44.72;98932.38;5118888;27;20207;-73
2023/08/31 07:23:00;;;;;;;1.00;0.50;;;;;;;30.63;43.46;98928.38;5119398;27;20190;-72
2023/08/31 07:25:31;;;;;;;0.73;0.43;;;;;;;30.93;41.45;98924.63;5126043;27;20197;-72
2023/08/31 07:27:58;;;;;;;1.17;0.80;;;;;;;30.92;40.70;98936.22;5110575;27;20786;-72
2023/08/31 07:30:25;;;;;;;0.43;0.40;;;;;;;31.03;41.07;98932.31;5114335;27;20206;-72
2023/08/31 07:32:52;;;;;;;0.90;0.50;;;;;;;31.19;40.24;98930.25;5113771;27;20194;-72
2023/08/31 07:35:19;;;;;;;0.50;0.43;;;;;;;31.41;38.72;98922.28;5111391;27;20213;-72
2023/08/31 07:37:46;;;;;;;0.55;0.55;;;;;;;31.70;39.77;98920.31;5113238;27;20234;-73
2023/08/31 07:40:13;;;;;;;0.60;0.60;;;;;;;32.06;39.81;98922.84;5110917;27;20225;-73
2023/08/31 07:42:41;;;;;;;0.40;0.40;;;;;;;32.24;39.55;98927.66;5112152;27;20202;-72
2023/08/31 07:45:09;;;;;;;0.90;0.40;;;;;;;32.20;37.40;98921.91;5115434;27;20198;-72
2023/08/31 07:47:36;;;;;;;1.23;0.38;;;;;;;32.17;38.93;98919.66;5115432;27;20260;-73
2023/08/31 07:50:05;;;;;;;1.23;0.60;;;;;;;31.93;39.79;98921.91;5110923;27;20244;-72
2023/08/31 07:52:34;;;;;;;0.75;0.75;;;;;;;31.95;38.54;98915.41;5116531;27;20190;-72
2023/08/31 07:55:01;;;;;;;0.28;0.28;;;;;;;32.08;39.04;98918.19;5115500;27;20198;-72
2023/08/31 07:57:28;;;;;;;0.68;0.68;;;;;;;32.18;36.93;98921.25;5123545;27;20194;-72
2023/08/31 07:59:56;;;;;;;0.30;0.30;;;;;;;32.42;36.13;98919.97;5111945;27;20627;-72
2023/08/31 08:02:24;;;;;;;0.50;0.50;;;;;;;32.68;37.08;98911.31;5111354;27;20222;-72
2023/08/31 08:04:52;;;;;;;0.63;0.50;;;;;;;32.75;36.96;98909.50;5119593;27;20202;-71
2023/08/31 08:07:19;;;;;;;0.30;0.30;;;;;;;32.81;39.42;98908.72;5116255;27;20225;-71
2023/08/31 08:09:45;;;;;;;0.52;0.52;;;;;;;32.94;35.08;98913.22;5124903;27;20214;-71
2023/08/31 08:12:13;;;;;;;0.68;0.52;;;;;;;32.93;36.04;98915.06;5112474;27;20195;-72
2023/08/31 08:14:40;;;;;;;0.47;0.47;;;;;;;32.84;36.10;98905.66;5118730;27;20198;-72
2023/08/31 08:17:08;;;;;;;0.50;0.50;;;;;;;32.83;35.35;98909.31;5117645;27;20194;-72
2023/08/31 08:19:35;;;;;;;0.40;0.40;;;;;;;32.79;35.75;98908.09;5113432;27;20264;-73
2023/08/31 08:22:03;;;;;;;1.20;0.60;;;;;;;32.79;34.85;98910.75;5106938;27;20187;-73
2023/08/31 08:24:30;;;;;;;0.50;0.50;;;;;;;32.71;35.49;98897.66;5108119;27;20195;-71
2023/08/31 08:26:56;;;;;;;0.60;0.60;;;;;;;32.93;35.69;98899.13;5113885;27;20190;-72
2023/08/31 08:29:23;;;;;;;0.65;0.65;;;;;;;33.03;36.60;98902.22;5112948;28;20558;-73
2023/08/31 08:31:50;;;;;;;2.55;0.40;;;;;;;33.13;38.29;98900.03;5113265;27;20206;-71
2023/08/31 08:34:18;;;;;;;0.68;0.55;;;;;;;33.33;35.89;98901.88;5118169;27;20718;-72
2023/08/31 08:36:45;;;;;;;0.60;0.60;;;;;;;33.47;36.37;98901.69;5113619;27;20194;-72
2023/08/31 08:39:12;;;;;;;0.20;0.20;;;;;;;33.64;33.32;98888.81;5120054;27;20290;-73
2023/08/31 08:41:40;;;;;;;0.40;0.40;;;;;;;33.76;33.83;98897.81;5121825;27;20201;-75
2023/08/31 08:44:08;;;;;;;0.40;0.40;;;;;;;33.84;33.52;98902.91;5116451;27;20205;-71
2023/08/31 08:46:36;;;;;;;0.45;0.45;;;;;;;33.72;33.87;98899.25;5125036;27;20203;-73
2023/08/31 08:49:06;;;;;;;0.30;0.30;;;;;;;33.69;33.42;98900.47;5121804;27;20630;-71
2023/08/31 08:51:34;;;;;;;0.43;0.43;;;;;;;33.92;33.90;98905.38;5110083;28;20198;-71
2023/08/31 08:54:03;;;;;;;6.30;1.27;;;;;;;33.79;31.16;98905.38;5115867;27;20232;-72
2023/08/31 08:56:30;;;;;;;2.30;0.93;;;;;;;33.82;31.69;98897.00;5112630;27;20201;-72
2023/08/31 08:58:56;;;;;;;0.90;0.85;;;;;;;33.91;31.61;98901.06;5114158;27;20224;-72
2023/08/31 09:01:24;;;;;;;0.50;0.50;;;;;;;34.08;33.34;98894.28;5114071;27;20214;-72
2023/08/31 09:03:52;;;;;;;0.75;0.75;;;;;;;34.18;33.98;98888.56;5110819;27;20255;-72
2023/08/31 09:06:20;;;;;;;1.00;0.50;;;;;;;34.36;33.25;98895.84;5117493;27;20210;-72
2023/08/31 09:08:55;;;;;;;0.60;0.60;;;;;;;34.38;32.64;98893.81;5111505;27;20217;-72
2023/08/31 09:11:22;;;;;;;0.47;0.47;;;;;;;34.24;31.82;98896.50;5115066;27;20186;-72
2023/08/31 09:13:50;;;;;;;0.32;0.32;;;;;;;34.22;34.27;98898.53;5116083;27;20207;-73
2023/08/31 09:16:28;;;;;;;2.50;0.52;;;;;;;34.32;33.75;98895.44;5121892;27;20213;-73
2023/08/31 09:18:55;;;;;;;0.68;0.60;;;;;;;34.45;31.71;98898.06;5114006;27;20221;-72
2023/08/31 09:21:24;;;;;;;0.50;0.50;;;;;;;34.51;35.63;98899.88;5115250;27;20195;-72
2023/08/31 09:23:58;;;;;;;1.85;0.55;;;;;;;34.47;30.97;98887.22;5111011;27;20273;-72
2023/08/31 09:26:25;;;;;;;0.60;0.60;;;;;;;34.24;30.53;98893.84;5122697;27;20578;-72
2023/08/31 09:28:55;;;;;;;0.40;0.40;;;;;;;34.17;31.84;98893.06;5115925;27;20198;-72
2023/08/31 09:31:30;;;;;;;0.90;0.90;;;;;;;34.16;33.26;98886.09;5116163;27;20199;-72
2023/08/31 09:33:57;;;;;;;0.38;0.38;;;;;;;34.01;32.37;98884.66;5105950;28;20255;-72
2023/08/31 09:36:23;;;;;;;0.55;0.50;;;;;;;34.21;32.86;98883.63;5109976;28;20264;-73
2023/08/31 09:38:50;;;;;;;0.52;0.52;;;;;;;34.35;33.69;98887.03;5109321;28;20214;-72
2023/08/31 09:41:18;;;;;;;0.50;0.50;;;;;;;34.50;31.13;98879.63;5110621;28;20191;-73
2023/08/31 09:43:45;;;;;;;0.60;0.60;;;;;;;34.26;30.85;98875.81;5109348;28;20251;-73
2023/08/31 09:46:13;;;;;;;1.75;0.52;;;;;;;34.40;31.76;98871.25;5105212;28;20195;-72
2023/08/31 09:48:42;;;;;;;0.60;0.60;;;;;;;34.25;30.49;98879.50;5115809;27;20202;-73
2023/08/31 09:51:11;;;;;;;0.40;0.40;;;;;;;34.08;31.46;98872.16;5108632;28;20191;-73
2023/08/31 09:53:38;;;;;;;0.80;0.80;;;;;;;34.08;31.55;98883.63;5109578;28;20194;-76
2023/08/31 09:56:07;;;;;;;0.45;0.45;;;;;;;34.22;32.25;98884.41;5110971;28;20206;-74
2023/08/31 09:58:35;;;;;;;0.65;0.65;;;;;;;34.46;30.98;98888.22;5108145;28;20806;-73
2023/08/31 10:01:02;;;;;;;0.50;0.50;;;;;;;34.61;29.80;98888.78;5105717;28;20746;-74
2023/08/31 10:03:30;;;;;;;0.77;0.43;;;;;;;34.51;30.04;98877.78;5106911;28;20294;-77
2023/08/31 10:05:57;;;;;;;0.38;0.38;;;;;;;34.59;30.32;98880.19;5107199;28;20689;-77
2023/08/31 10:08:26;;;;;;;0.50;0.50;;;;;;;34.67;31.02;98883.44;5108747;27;20321;-76
2023/08/31 10:10:54;;;;;;;0.88;0.70;;;;;;;34.71;30.49;98878.50;5109714;28;20210;-75
2023/08/31 10:13:22;;;;;;;0.47;0.47;;;;;;;34.85;31.23;98880.06;5106852;28;20293;-72
2023/08/31 10:15:51;;;;;;;0.77;0.43;;;;;;;34.98;32.05;98881.84;5103049;28;20199;-74
2023/08/31 10:18:18;;;;;;;0.40;0.40;;;;;;;34.97;30.49;98878.34;5108203;28;20308;-72
2023/08/31 10:20:46;;;;;;;0.68;0.40;;;;;;;34.83;29.93;98849.34;5117278;28;20197;-72
2023/08/31 10:23:13;;;;;;;0.38;0.38;;;;;;;34.99;30.43;98872.81;5108302;28;20199;-72
2023/08/31 10:26:03;;;;;;;0.57;0.50;;;;;;;35.09;33.02;98868.63;5109091;28;20211;-73
2023/08/31 10:28:31;;;;;;;0.40;0.40;;;;;;;35.31;30.47;98871.78;5110933;28;20239;-72
2023/08/31 10:31:06;;;;;;;0.50;0.50;;;;;;;35.42;29.51;98870.25;5113551;28;20255;-72
2023/08/31 10:33:34;;;;;;;0.80;0.50;;;;;;;35.65;29.79;98873.16;5107835;28;20195;-73
2023/08/31 10:36:01;;;;;;;0.68;0.50;;;;;;;35.90;29.93;98868.56;5108054;28;20285;-74
2023/08/31 10:38:31;;;;;;;0.90;0.70;;;;;;;36.06;28.87;98878.69;5106168;28;20251;-76
2023/08/31 10:41:16;;;;;;;0.70;0.70;;;;;;;36.20;29.44;98874.84;5105897;28;20290;-73
2023/08/31 10:43:46;;;;;;;0.40;0.40;;;;;;;36.16;29.79;98883.50;5105980;28;20232;-73
2023/08/31 10:46:19;;;;;;;0.80;0.63;;;;;;;36.23;27.76;98879.72;5105920;28;20202;-73
2023/08/31 10:48:53;;;;;;;0.80;0.80;;;;;;;36.21;29.17;98887.16;5111150;28;20203;-73
2023/08/31 10:51:22;;;;;;;1.85;0.60;;;;;;;36.01;28.82;98880.38;5110548;27;20264;-73
2023/08/31 10:53:49;;;;;;;0.45;0.45;;;;;;;36.09;28.87;98888.91;5111504;28;20248;-72
2023/08/31 10:56:17;;;;;;;0.50;0.50;;;;;;;36.23;28.28;98890.41;5112534;27;20190;-73
2023/08/31 10:58:45;;;;;;;0.55;0.40;;;;;;;36.25;27.90;98888.31;5113160;28;20221;-73
2023/08/31 11:01:12;;;;;;;0.50;0.50;;;;;;;36.11;28.19;98884.19;5112602;28;20600;-73
2023/08/31 11:04:11;;;;;;;0.40;0.40;;;;;;;35.94;29.53;98879.63;5111241;28;20195;-74
2023/08/31 11:06:38;;;;;;;0.40;0.40;;;;;;;35.61;29.38;98878.09;5029117;28;20193;-74
2023/08/31 11:09:06;;;;;;;0.65;0.65;;;;;;;35.24;29.30;98881.69;5092571;27;20593;-73
2023/08/31 11:11:38;;;;;;;0.60;0.60;;;;;;;35.18;28.79;98891.38;5109945;28;20199;-73
2023/08/31 11:14:05;;;;;;;1.88;0.60;;;;;;;35.05;28.93;98891.41;5115529;27;20209;-75
2023/08/31 11:16:32;;;;;;;0.60;0.60;;;;;;;34.99;28.64;98889.63;5111322;27;20202;-72
2023/08/31 11:18:59;;;;;;;0.50;0.50;;;;;;;35.18;30.12;98879.88;5110940;27;20218;-75
2023/08/31 11:21:27;;;;;;;1.58;0.60;;;;;;;35.26;30.72;98872.44;5109183;28;20264;-72
2023/08/31 11:23:57;;;;;;;0.60;0.60;;;;;;;35.26;29.29;98867.09;5107807;27;20466;-74
2023/08/31 11:26:25;;;;;;;0.60;0.60;;;;;;;35.40;29.35;98873.13;5113396;28;20260;-72
2023/08/31 11:28:51;;;;;;;0.70;0.70;;;;;;;35.68;28.30;98862.03;5111284;28;20195;-74
2023/08/31 11:31:24;;;;;;;2.08;0.80;;;;;;;35.74;27.72;98869.16;5113500;27;20232;-74
2023/08/31 11:33:54;;;;;;;0.65;0.65;;;;;;;35.85;31.21;98870.28;5111572;28;20708;-72
2023/08/31 11:36:21;;;;;;;0.30;0.30;;;;;;;35.90;29.03;98863.22;5134142;27;20217;-73
2023/08/31 11:38:50;;;;;;;0.47;0.47;;;;;;;36.01;28.29;98859.03;5115740;27;20198;-73